Aleksandr Zhitnik — EMBN — position and weather

sailwx.info

Track history (hours):
 
Tides and Currents Weather Stations Pressure Air Temp Water Temp Dewpoint Dewpoint Depression Visibility Wind Speed Wind Dir Waves Ship Positions

Aleksandr Zhitnik

Last reported at 2016-Sep-04 18:16 UTC. Time now 2016-Sep-28 23:58 UTC.
Position N 45°23' E 029°04'.
Warning: this ship's position is 24 days out of date.

Length 85 m; draft 1.6 m.

MMSI: 272089600.

Date/timePositionNaut miles runAvg speedWind from/ knotsBaromVisibWave heightAir tempDewpointWater temp
2016-Sep-04 18:16N 45°23' E 029°04'83 3.8
2016-Sep-03 20:33N 46°09' E 030°42'5 5.0
2016-Sep-03 19:33N 46°13' E 030°46'5 4.9
2016-Sep-03 18:33N 46°17' E 030°51'5 4.8
2016-Sep-03 17:34N 46°19' E 030°57'9 4.6
2016-Sep-03 15:34N 46°25' E 031°08'4 4.5
2016-Sep-03 14:34N 46°29' E 031°11'6 4.7
2016-Sep-03 13:14N 46°33' E 031°18'3 4.2
2016-Sep-03 12:33N 46°34' E 031°22'5 5.1
2016-Sep-03 11:33N 46°36' E 031°29'12 6.0
2016-Sep-03 09:33N 46°36' E 031°46'6 6.4
2016-Sep-03 08:33N 46°34' E 031°55'  
Track history (hours):
 
Tides and Currents Weather Stations Pressure Air Temp Water Temp Dewpoint Dewpoint Depression Visibility Wind Speed Wind Dir Waves Ship Positions

Aleksandr Zhitnik

Last reported at 2016-Sep-04 18:16 UTC. Time now 2016-Sep-28 23:58 UTC.
Position N 45°23' E 029°04'.
Warning: this ship's position is 24 days out of date.

Length 85 m; draft 1.6 m.

MMSI: 272089600.

Date/timePositionNaut miles runAvg speedWind from/ knotsBaromVisibWave heightAir tempDewpointWater temp
2016-Sep-04 18:16N 45°23' E 029°04'83 3.8
2016-Sep-03 20:33N 46°09' E 030°42'5 5.0
2016-Sep-03 19:33N 46°13' E 030°46'5 4.9
2016-Sep-03 18:33N 46°17' E 030°51'5 4.8
2016-Sep-03 17:34N 46°19' E 030°57'9 4.6
2016-Sep-03 15:34N 46°25' E 031°08'4 4.5
2016-Sep-03 14:34N 46°29' E 031°11'6 4.7
2016-Sep-03 13:14N 46°33' E 031°18'3 4.2
2016-Sep-03 12:33N 46°34' E 031°22'5 5.1
2016-Sep-03 11:33N 46°36' E 031°29'12 6.0
2016-Sep-03 09:33N 46°36' E 031°46'6 6.4
2016-Sep-03 08:33N 46°34' E 031°55'  

Dump ship's entire track history